Time;durP1;ratioP1;P1;durP2;ratioP2;P2;SDS_P1;SDS_P2;PMS_P1;PMS_P2;Temp;Humidity;BMP_temperature;BMP_pressure;BME280_temperature;BME280_humidity;BME280_pressure;Samples;Min_cycle;Max_cycle;Signal;HPM_P1;HPM_P2
2023/04/19 00:01:40;;;;;;;13.35;8.82;;;10.80;99.90;;;;;;4980411;28;20053;-73
2023/04/19 00:04:07;;;;;;;10.30;8.50;;;10.80;99.90;;;;;;4985960;28;20029;-71
2023/04/19 00:06:34;;;;;;;10.52;8.13;;;10.80;99.90;;;;;;5004086;28;20048;-72
2023/04/19 00:09:00;;;;;;;11.45;9.77;;;10.70;99.90;;;;;;4989854;28;20029;-71
2023/04/19 00:11:26;;;;;;;11.18;9.30;;;10.70;99.90;;;;;;4984225;28;20392;-72
2023/04/19 00:13:53;;;;;;;11.27;8.43;;;10.70;99.90;;;;;;4995991;28;20032;-72
2023/04/19 00:16:19;;;;;;;9.73;7.65;;;10.60;99.90;;;;;;4996174;28;20602;-73
2023/04/19 00:18:45;;;;;;;11.00;7.97;;;10.60;99.90;;;;;;4989222;28;20068;-72
2023/04/19 00:21:11;;;;;;;10.25;7.15;;;10.50;99.90;;;;;;4980298;28;20029;-73
2023/04/19 00:23:38;;;;;;;8.63;7.30;;;10.50;99.90;;;;;;4987600;28;20033;-73
2023/04/19 00:26:04;;;;;;;11.90;8.63;;;10.40;99.90;;;;;;4989179;28;20041;-73
2023/04/19 00:28:32;;;;;;;12.50;8.80;;;10.40;99.90;;;;;;4990245;28;20025;-71
2023/04/19 00:30:58;;;;;;;11.50;9.02;;;10.30;99.90;;;;;;4960928;28;20045;-71
2023/04/19 00:33:24;;;;;;;11.57;9.93;;;10.30;99.90;;;;;;4994675;28;20423;-72
2023/04/19 00:35:51;;;;;;;12.50;8.15;;;10.20;99.90;;;;;;4997106;28;20037;-72
2023/04/19 00:38:19;;;;;;;11.32;8.02;;;10.10;99.90;;;;;;5011340;28;20029;-70
2023/04/19 00:40:46;;;;;;;10.63;8.60;;;10.10;99.90;;;;;;4978661;28;20463;-73
2023/04/19 00:43:17;;;;;;;11.95;9.27;;;10.00;99.90;;;;;;4987603;28;20049;-72
2023/04/19 00:45:44;;;;;;;12.10;8.20;;;10.00;99.90;;;;;;4971661;28;20044;-72
2023/04/19 00:48:13;;;;;;;10.80;8.63;;;9.90;99.90;;;;;;4988286;28;20033;-71
2023/04/19 00:50:42;;;;;;;10.35;9.07;;;9.90;99.90;;;;;;4978576;28;20044;-72
2023/04/19 00:53:09;;;;;;;11.10;8.57;;;9.90;99.90;;;;;;4991092;28;20044;-72
2023/04/19 00:55:37;;;;;;;13.93;9.05;;;9.90;99.90;;;;;;4980469;28;20041;-73
2023/04/19 00:58:06;;;;;;;15.85;9.65;;;9.90;99.90;;;;;;4996341;28;20490;-71
2023/04/19 01:00:32;;;;;;;12.48;9.93;;;9.90;99.90;;;;;;4981869;28;20041;-71
2023/04/19 01:02:58;;;;;;;13.60;10.43;;;9.90;99.90;;;;;;4987462;28;20038;-72
2023/04/19 01:05:25;;;;;;;12.10;9.13;;;9.90;99.90;;;;;;4988145;28;20044;-71
2023/04/19 01:07:51;;;;;;;11.15;8.90;;;9.90;99.90;;;;;;4987816;28;20033;-72
2023/04/19 01:10:18;;;;;;;13.95;10.20;;;9.90;99.90;;;;;;4980125;28;21893;-72
2023/04/19 01:12:44;;;;;;;10.10;8.52;;;9.90;99.90;;;;;;4970654;28;20474;-71
2023/04/19 01:15:10;;;;;;;12.50;9.07;;;9.90;99.90;;;;;;4997360;28;20052;-72
2023/04/19 01:17:37;;;;;;;11.90;9.73;;;9.90;99.90;;;;;;4995841;28;20037;-71
2023/04/19 01:20:06;;;;;;;13.27;9.55;;;9.80;99.90;;;;;;4966517;28;20052;-72
2023/04/19 01:22:36;;;;;;;13.10;9.93;;;9.90;99.90;;;;;;4985803;28;20247;-70
2023/04/19 01:25:05;;;;;;;11.48;8.73;;;9.90;99.90;;;;;;4986560;28;20501;-71
2023/04/19 01:27:31;;;;;;;10.23;7.63;;;9.80;99.90;;;;;;4986437;28;20037;-73
2023/04/19 01:29:58;;;;;;;11.45;9.30;;;9.80;99.90;;;;;;4979219;28;20033;-71
2023/04/19 01:32:26;;;;;;;10.57;7.95;;;9.70;99.90;;;;;;4988975;28;20029;-70
2023/04/19 01:34:52;;;;;;;15.63;9.63;;;9.60;99.90;;;;;;4994665;28;20044;-72
2023/04/19 01:37:18;;;;;;;11.23;8.90;;;9.60;99.90;;;;;;4978023;28;20037;-73
2023/04/19 01:39:45;;;;;;;13.45;9.02;;;9.60;99.90;;;;;;4989764;28;20503;-70
2023/04/19 01:42:11;;;;;;;12.05;9.30;;;9.60;99.90;;;;;;4984346;28;20512;-72
2023/04/19 01:44:37;;;;;;;10.15;8.20;;;9.50;99.90;;;;;;4987208;28;20864;-71
2023/04/19 01:47:04;;;;;;;11.25;8.68;;;9.50;99.90;;;;;;4970053;28;20405;-71
2023/04/19 01:49:32;;;;;;;12.35;9.70;;;9.50;99.90;;;;;;4984627;28;20527;-72
2023/04/19 01:51:59;;;;;;;11.10;9.75;;;9.40;99.90;;;;;;4981824;28;20045;-71
2023/04/19 01:54:26;;;;;;;10.88;7.47;;;9.40;99.90;;;;;;4992065;28;20040;-72
2023/04/19 01:56:52;;;;;;;11.55;8.60;;;9.40;99.90;;;;;;4979034;28;20052;-71
2023/04/19 01:59:19;;;;;;;13.13;8.77;;;9.40;99.90;;;;;;5006989;28;20038;-71
2023/04/19 02:01:45;;;;;;;11.68;8.73;;;9.30;99.90;;;;;;4980004;28;20029;-72
2023/04/19 02:04:12;;;;;;;11.85;8.25;;;9.30;99.90;;;;;;4984371;28;20029;-71
2023/04/19 02:06:38;;;;;;;10.95;7.95;;;9.30;99.90;;;;;;4968827;28;20444;-72
2023/04/19 02:09:04;;;;;;;7.10;6.07;;;9.20;99.90;;;;;;4971651;28;20041;-72
2023/04/19 02:11:31;;;;;;;10.38;7.88;;;9.20;99.90;;;;;;4978832;28;20033;-71
2023/04/19 02:13:57;;;;;;;7.63;5.47;;;9.20;99.90;;;;;;4986077;28;20029;-72
2023/04/19 02:16:23;;;;;;;9.13;6.97;;;9.10;99.90;;;;;;4974881;28;20048;-71
2023/04/19 02:18:50;;;;;;;11.60;8.55;;;9.10;99.90;;;;;;5028736;28;20601;-72
2023/04/19 02:21:18;;;;;;;9.32;7.78;;;9.10;99.90;;;;;;4984183;28;20044;-72
2023/04/19 02:23:44;;;;;;;12.25;8.95;;;9.10;99.90;;;;;;4983844;28;20052;-71
2023/04/19 02:26:11;;;;;;;10.18;8.15;;;9.20;99.90;;;;;;4969203;28;20124;-71
2023/04/19 02:28:38;;;;;;;8.75;6.35;;;9.30;99.90;;;;;;4969328;28;20064;-70
2023/04/19 02:31:05;;;;;;;8.70;6.70;;;9.40;99.90;;;;;;4977435;28;20316;-71
2023/04/19 02:33:35;;;;;;;9.18;7.57;;;9.50;99.90;;;;;;5001925;28;20049;-71
2023/04/19 02:36:01;;;;;;;11.75;8.65;;;9.60;99.90;;;;;;4989310;28;20469;-71
2023/04/19 02:38:27;;;;;;;11.52;7.85;;;9.70;99.90;;;;;;5028991;28;20107;-71
2023/04/19 02:40:54;;;;;;;11.85;7.53;;;9.70;99.90;;;;;;4970597;28;21168;-72
2023/04/19 02:43:20;;;;;;;12.38;7.72;;;9.70;99.90;;;;;;4985466;28;20461;-72
2023/04/19 02:45:46;;;;;;;11.25;7.63;;;9.80;99.90;;;;;;4985828;28;20044;-72
2023/04/19 02:48:13;;;;;;;9.57;6.93;;;9.80;99.90;;;;;;4985857;28;20025;-72
2023/04/19 02:50:39;;;;;;;13.15;8.50;;;9.80;99.90;;;;;;4960695;28;20062;-71
2023/04/19 02:53:06;;;;;;;9.30;7.10;;;9.90;99.90;;;;;;4983796;28;20037;-71
2023/04/19 02:55:33;;;;;;;11.27;6.68;;;9.90;99.90;;;;;;4974431;28;20045;-72
2023/04/19 02:58:12;;;;;;;9.40;6.57;;;9.90;99.90;;;;;;4982466;28;20041;-72
2023/04/19 03:00:44;;;;;;;9.70;6.88;;;9.90;99.90;;;;;;4969435;28;20505;-71
2023/04/19 03:03:15;;;;;;;9.35;6.15;;;9.90;99.90;;;;;;4976635;28;20413;-70
2023/04/19 03:05:41;;;;;;;7.60;6.45;;;9.90;99.90;;;;;;4969729;28;20033;-71
2023/04/19 03:08:09;;;;;;;11.70;7.57;;;10.00;99.90;;;;;;4984894;28;20037;-72
2023/04/19 03:10:36;;;;;;;11.68;7.20;;;10.00;99.90;;;;;;4977190;28;20040;-71
2023/04/19 03:13:02;;;;;;;10.40;7.20;;;10.00;99.90;;;;;;4987772;28;20033;-71
2023/04/19 03:15:29;;;;;;;8.43;6.63;;;10.00;99.90;;;;;;4991578;28;20408;-71
2023/04/19 03:17:55;;;;;;;10.88;7.35;;;10.00;99.90;;;;;;4997335;28;20045;-74
2023/04/19 03:20:22;;;;;;;15.50;6.25;;;10.00;99.90;;;;;;4989320;28;20034;-72
2023/04/19 03:22:50;;;;;;;10.63;5.57;;;10.00;99.90;;;;;;5026933;28;20037;-70
2023/04/19 03:25:17;;;;;;;9.25;6.05;;;10.00;99.90;;;;;;4988340;28;20037;-73
2023/04/19 03:27:48;;;;;;;10.52;6.80;;;10.00;99.90;;;;;;5022384;28;20421;-73
2023/04/19 03:30:18;;;;;;;8.60;5.60;;;10.00;99.90;;;;;;4964693;28;20040;-72
2023/04/19 03:32:46;;;;;;;7.53;6.18;;;10.00;99.90;;;;;;4990969;28;20037;-71
2023/04/19 03:35:13;;;;;;;7.97;5.75;;;10.00;99.90;;;;;;4990045;28;20034;-72
2023/04/19 03:37:40;;;;;;;10.48;5.68;;;10.00;99.90;;;;;;4979745;28;20408;-74
2023/04/19 03:40:07;;;;;;;9.20;6.95;;;10.00;99.90;;;;;;4972365;28;20355;-72
2023/04/19 03:42:34;;;;;;;9.98;6.55;;;9.90;99.90;;;;;;4992225;28;20037;-73
2023/04/19 03:45:09;;;;;;;9.25;7.18;;;9.90;99.90;;;;;;4988233;28;20249;-75
2023/04/19 03:47:40;;;;;;;8.77;6.13;;;9.80;99.90;;;;;;4958527;28;21174;-71
2023/04/19 03:50:08;;;;;;;8.77;6.53;;;9.90;99.90;;;;;;4980091;28;20064;-71
2023/04/19 03:52:35;;;;;;;7.50;5.95;;;9.80;99.90;;;;;;4989305;28;20040;-74
2023/04/19 03:55:01;;;;;;;7.78;5.55;;;9.80;99.90;;;;;;4973898;28;20082;-73
2023/04/19 03:57:34;;;;;;;8.43;5.90;;;9.80;99.90;;;;;;4996904;28;20420;-71
2023/04/19 04:00:07;;;;;;;12.88;5.45;;;9.70;99.90;;;;;;4987570;28;20037;-72
2023/04/19 04:02:40;;;;;;;9.13;5.85;;;9.60;99.90;;;;;;4990952;28;20314;-74
2023/04/19 04:05:07;;;;;;;11.65;5.35;;;9.60;99.90;;;;;;4971952;28;20033;-73
2023/04/19 04:07:34;;;;;;;7.82;4.95;;;9.50;99.90;;;;;;4987294;28;20396;-72
2023/04/19 04:10:01;;;;;;;6.72;4.78;;;9.40;99.90;;;;;;4980682;28;20048;-72
2023/04/19 04:12:32;;;;;;;8.13;5.47;;;9.40;99.90;;;;;;4987292;28;20034;-71
2023/04/19 04:14:59;;;;;;;8.25;5.78;;;9.30;99.90;;;;;;4990245;28;20041;-71
2023/04/19 04:17:26;;;;;;;7.80;5.40;;;9.20;99.90;;;;;;5013948;28;20052;-72
2023/04/19 04:19:53;;;;;;;7.05;5.47;;;9.20;99.90;;;;;;4990113;28;20101;-72
2023/04/19 04:22:22;;;;;;;10.32;5.55;;;9.10;99.90;;;;;;4986857;28;20025;-71
2023/04/19 04:24:48;;;;;;;7.25;5.50;;;9.10;99.90;;;;;;4986897;28;20044;-72
2023/04/19 04:27:33;;;;;;;9.20;6.00;;;9.00;99.90;;;;;;4986511;28;20037;-71
2023/04/19 04:30:01;;;;;;;6.45;4.68;;;9.00;99.90;;;;;;4997131;28;20033;-73
2023/04/19 04:32:29;;;;;;;6.85;4.47;;;9.00;99.90;;;;;;4971785;28;20045;-72
2023/04/19 04:35:00;;;;;;;7.78;4.75;;;8.90;99.90;;;;;;4989558;28;20471;-71
2023/04/19 04:37:40;;;;;;;7.75;4.13;;;8.80;99.90;;;;;;4998400;28;20033;-72
2023/04/19 04:40:07;;;;;;;7.95;4.97;;;8.90;99.90;;;;;;4987666;28;20053;-71
2023/04/19 04:42:36;;;;;;;6.32;4.90;;;8.80;99.90;;;;;;4985643;28;20596;-72
2023/04/19 04:45:03;;;;;;;7.07;4.47;;;8.70;99.90;;;;;;4985810;28;20026;-71
2023/04/19 04:47:31;;;;;;;6.40;3.92;;;8.70;99.90;;;;;;4989923;28;20033;-71
2023/04/19 04:49:59;;;;;;;7.30;5.25;;;8.70;99.90;;;;;;4981944;28;20053;-72
2023/04/19 04:52:26;;;;;;;6.10;3.60;;;8.70;99.90;;;;;;4986390;28;20042;-73
2023/04/19 04:55:05;;;;;;;9.40;6.03;;;8.60;99.90;;;;;;4977834;28;20049;-72
2023/04/19 04:57:34;;;;;;;8.85;5.60;;;8.60;99.90;;;;;;5012903;28;20528;-76
2023/04/19 05:00:05;;;;;;;9.35;5.25;;;8.60;99.90;;;;;;4988328;28;20029;-74
2023/04/19 05:02:38;;;;;;;6.78;5.25;;;8.50;99.90;;;;;;4987533;28;20736;-72
2023/04/19 05:05:04;;;;;;;7.95;5.20;;;8.50;99.90;;;;;;4953511;28;20488;-72
2023/04/19 05:07:32;;;;;;;7.03;4.53;;;8.50;99.90;;;;;;5003209;28;20044;-72
2023/04/19 05:10:01;;;;;;;8.18;6.05;;;8.50;99.90;;;;;;4964001;28;20597;-71
2023/04/19 05:12:35;;;;;;;;;;;8.40;99.90;;;;;;4971876;28;20048;-73
2023/04/19 05:15:01;;;;;;;8.00;5.32;;;8.50;99.90;;;;;;4973740;28;19917;-73
2023/04/19 05:17:28;;;;;;;8.82;4.47;;;8.40;99.90;;;;;;4980067;28;20052;-86
2023/04/19 05:19:55;;;;;;;6.72;4.35;;;8.40;99.90;;;;;;4989997;28;20053;-71
2023/04/19 05:22:21;;;;;;;7.00;4.85;;;8.40;99.90;;;;;;4988824;28;21571;-72
2023/04/19 05:24:49;;;;;;;8.85;6.15;;;8.40;99.90;;;;;;4970445;28;20037;-71
2023/04/19 05:27:16;;;;;;;7.50;4.72;;;8.40;99.90;;;;;;4986759;28;20560;-72
2023/04/19 05:29:42;;;;;;;7.32;5.22;;;8.40;99.90;;;;;;4964876;28;20037;-72
2023/04/19 05:32:09;;;;;;;7.70;4.55;;;8.40;99.90;;;;;;4969315;28;20064;-74
2023/04/19 05:34:42;;;;;;;9.65;4.30;;;8.40;99.90;;;;;;4988825;28;20034;-75
2023/04/19 05:37:13;;;;;;;6.75;4.57;;;8.40;99.90;;;;;;4995899;28;20048;-74
2023/04/19 05:39:39;;;;;;;5.80;4.63;;;8.40;99.90;;;;;;4991036;28;20368;-72
2023/04/19 05:42:05;;;;;;;6.28;4.20;;;8.30;99.90;;;;;;4988783;28;20044;-71
2023/04/19 05:44:32;;;;;;;8.80;5.45;;;8.40;99.90;;;;;;4986723;28;20918;-73
2023/04/19 05:46:58;;;;;;;7.88;4.75;;;8.40;99.90;;;;;;4985428;28;20041;-72
2023/04/19 05:49:47;;;;;;;7.35;4.20;;;8.40;99.90;;;;;;4981836;28;20744;-72
2023/04/19 05:52:22;;;;;;;7.25;4.53;;;8.50;99.90;;;;;;4988957;28;20037;-72
2023/04/19 05:54:52;;;;;;;6.03;4.28;;;8.50;99.90;;;;;;4970815;28;20045;-72
2023/04/19 05:57:18;;;;;;;6.30;4.40;;;8.50;99.90;;;;;;4996076;28;20045;-72
2023/04/19 05:59:45;;;;;;;5.90;3.53;;;8.60;99.90;;;;;;4991060;28;20033;-72
2023/04/19 06:02:16;;;;;;;7.95;4.72;;;8.60;99.90;;;;;;4988586;28;20037;-73
2023/04/19 06:04:42;;;;;;;5.57;3.58;;;8.70;99.90;;;;;;5001177;28;20041;-73
2023/04/19 06:07:08;;;;;;;4.97;3.58;;;8.80;99.90;;;;;;4987516;28;20033;-73
2023/04/19 06:09:35;;;;;;;5.38;3.83;;;8.90;99.90;;;;;;4981475;28;20614;-73
2023/04/19 06:12:01;;;;;;;5.40;3.78;;;9.00;99.90;;;;;;4968647;28;20029;-73
2023/04/19 06:14:30;;;;;;;7.53;4.60;;;9.10;99.90;;;;;;5020787;28;20060;-74
2023/04/19 06:16:57;;;;;;;6.00;4.20;;;9.20;99.90;;;;;;4978771;28;20408;-74
2023/04/19 06:19:23;;;;;;;6.85;3.42;;;9.40;99.90;;;;;;4994326;28;20361;-73
2023/04/19 06:21:50;;;;;;;8.70;4.00;;;9.70;99.90;;;;;;4986337;28;20093;-72
2023/04/19 06:24:16;;;;;;;7.53;4.20;;;9.90;99.90;;;;;;4985618;28;20971;-73
2023/04/19 06:26:42;;;;;;;4.80;3.20;;;10.10;99.90;;;;;;4987368;28;20041;-73
2023/04/19 06:29:09;;;;;;;4.57;3.08;;;10.20;99.90;;;;;;4986873;28;20036;-74
2023/04/19 06:31:35;;;;;;;7.82;3.83;;;10.40;99.90;;;;;;4983243;28;20032;-72
2023/04/19 06:34:01;;;;;;;5.47;3.60;;;10.60;99.90;;;;;;4969786;28;20041;-74
2023/04/19 06:36:28;;;;;;;6.68;3.38;;;10.80;99.90;;;;;;4994533;28;20034;-74
2023/04/19 06:38:54;;;;;;;8.07;3.92;;;10.80;99.90;;;;;;4996669;28;20072;-73
2023/04/19 06:41:21;;;;;;;4.80;2.50;;;10.90;99.90;;;;;;4969883;28;20044;-73
2023/04/19 06:43:48;;;;;;;5.53;2.90;;;10.90;99.90;;;;;;4987833;28;20045;-72
2023/04/19 06:46:14;;;;;;;5.70;2.78;;;11.00;99.90;;;;;;4987082;28;20507;-72
2023/04/19 06:48:40;;;;;;;6.40;2.75;;;11.20;99.90;;;;;;4987555;28;20041;-73
2023/04/19 06:51:07;;;;;;;2.85;1.80;;;11.50;99.90;;;;;;4965214;28;21532;-74
2023/04/19 06:53:34;;;;;;;3.92;2.63;;;11.70;99.90;;;;;;5022893;28;20038;-74
2023/04/19 06:56:03;;;;;;;4.03;2.05;;;11.90;99.90;;;;;;4995191;28;20032;-75
2023/04/19 06:58:31;;;;;;;5.90;2.58;;;12.00;99.60;;;;;;5000811;28;20037;-73
2023/04/19 07:00:58;;;;;;;4.57;2.38;;;12.00;98.10;;;;;;4990842;28;20045;-74
2023/04/19 07:03:24;;;;;;;4.47;2.08;;;12.00;97.90;;;;;;4991093;28;20034;-74
2023/04/19 07:05:55;;;;;;;3.63;1.67;;;11.90;96.70;;;;;;4990566;28;20040;-74
2023/04/19 07:08:22;;;;;;;4.32;1.70;;;11.90;96.30;;;;;;4992639;28;20041;-73
2023/04/19 07:10:48;;;;;;;4.82;1.73;;;12.00;95.00;;;;;;4985208;28;20033;-74
2023/04/19 07:13:15;;;;;;;3.13;1.90;;;11.90;94.10;;;;;;4990994;28;20044;-74
2023/04/19 07:15:41;;;;;;;5.35;1.75;;;11.90;93.60;;;;;;4990686;28;20029;-75
2023/04/19 07:18:09;;;;;;;4.68;1.88;;;11.90;93.40;;;;;;5000765;28;20063;-73
2023/04/19 07:20:36;;;;;;;4.82;1.63;;;11.90;93.40;;;;;;4990173;28;20037;-74
2023/04/19 07:23:02;;;;;;;4.47;1.88;;;11.80;93.10;;;;;;4991532;28;20265;-74
2023/04/19 07:25:28;;;;;;;4.32;1.80;;;11.80;92.70;;;;;;4992648;28;20037;-72
2023/04/19 07:27:55;;;;;;;2.40;1.48;;;11.80;92.60;;;;;;4990672;28;20042;-73
2023/04/19 07:30:21;;;;;;;3.80;1.33;;;11.70;92.60;;;;;;4949308;28;20037;-73
2023/04/19 07:32:50;;;;;;;4.05;1.52;;;11.80;92.80;;;;;;4972782;28;20375;-74
2023/04/19 07:35:18;;;;;;;4.38;1.45;;;11.90;92.50;;;;;;4988539;28;20044;-75
2023/04/19 07:37:44;;;;;;;3.97;1.80;;;11.90;92.40;;;;;;4998646;28;20493;-75
2023/04/19 07:40:11;;;;;;;5.20;1.35;;;11.90;92.00;;;;;;4991615;28;20044;-73
2023/04/19 07:42:37;;;;;;;7.40;1.60;;;12.00;92.20;;;;;;4976914;28;20037;-73
2023/04/19 07:45:04;;;;;;;3.38;1.63;;;12.00;91.20;;;;;;5022153;28;20037;-74
2023/04/19 07:47:31;;;;;;;3.72;1.23;;;12.00;91.10;;;;;;4990376;28;20754;-72
2023/04/19 07:49:57;;;;;;;2.08;1.00;;;12.00;91.00;;;;;;4983731;28;20064;-75
2023/04/19 07:52:24;;;;;;;6.35;1.30;;;12.00;90.60;;;;;;4990494;28;20049;-74
2023/04/19 07:54:50;;;;;;;1.95;1.17;;;12.10;90.70;;;;;;4989798;28;20037;-74
2023/04/19 07:57:16;;;;;;;3.30;1.00;;;12.20;90.60;;;;;;4993354;28;20048;-74
2023/04/19 07:59:43;;;;;;;5.95;2.72;;;12.20;90.60;;;;;;4994129;28;20034;-74
2023/04/19 08:02:09;;;;;;;5.15;1.73;;;12.40;90.40;;;;;;4992583;28;20039;-72
2023/04/19 08:04:36;;;;;;;4.53;1.83;;;12.40;89.20;;;;;;4990351;28;20476;-74
2023/04/19 08:07:03;;;;;;;4.10;1.17;;;12.50;88.10;;;;;;4989308;28;21223;-73
2023/04/19 08:09:29;;;;;;;3.90;1.30;;;12.50;88.40;;;;;;4986597;28;20082;-73
2023/04/19 08:11:56;;;;;;;4.43;1.05;;;12.50;87.80;;;;;;4970331;28;20033;-74
2023/04/19 08:14:22;;;;;;;2.45;0.90;;;12.50;87.60;;;;;;4990040;28;20045;-73
2023/04/19 08:16:49;;;;;;;2.92;1.15;;;12.60;87.80;;;;;;4976661;28;20045;-74
2023/04/19 08:19:15;;;;;;;2.72;1.13;;;12.60;86.70;;;;;;4996960;28;20333;-73
2023/04/19 08:21:42;;;;;;;2.33;0.80;;;12.60;86.70;;;;;;4991645;28;20045;-73
2023/04/19 08:24:08;;;;;;;2.65;0.80;;;12.60;85.50;;;;;;4972448;28;20041;-73
2023/04/19 08:26:34;;;;;;;5.05;1.15;;;12.70;86.20;;;;;;4987199;28;20055;-73
2023/04/19 08:29:00;;;;;;;2.42;0.80;;;12.70;85.70;;;;;;5003748;28;21895;-74
2023/04/19 08:31:27;;;;;;;3.55;0.90;;;12.80;84.60;;;;;;4983793;28;20041;-74
2023/04/19 08:33:53;;;;;;;2.45;0.80;;;12.90;83.90;;;;;;4992890;28;20048;-73
2023/04/19 08:36:19;;;;;;;1.38;0.63;;;12.90;83.70;;;;;;4993809;28;20030;-73
2023/04/19 08:38:47;;;;;;;1.70;0.60;;;12.90;83.90;;;;;;4998159;28;20056;-72
2023/04/19 08:41:15;;;;;;;4.68;0.63;;;13.10;82.70;;;;;;4973155;28;20056;-72
2023/04/19 08:43:44;;;;;;;2.22;0.55;;;13.10;80.20;;;;;;4991226;28;20408;-73
2023/04/19 08:46:11;;;;;;;2.55;0.60;;;13.00;80.20;;;;;;4988281;28;20037;-73
2023/04/19 08:48:39;;;;;;;5.10;0.60;;;13.00;81.20;;;;;;4988809;28;20041;-73
2023/04/19 08:51:06;;;;;;;1.30;0.55;;;13.20;81.10;;;;;;4980896;28;20045;-72
2023/04/19 08:53:34;;;;;;;2.28;0.55;;;13.30;79.80;;;;;;4986967;28;20041;-74
2023/04/19 08:56:01;;;;;;;1.08;0.40;;;13.30;78.40;;;;;;4991666;28;21207;-73
2023/04/19 08:58:31;;;;;;;1.52;0.40;;;13.20;77.20;;;;;;4997694;28;20133;-74
2023/04/19 09:00:57;;;;;;;3.05;0.50;;;13.20;77.50;;;;;;4989554;28;20036;-73
2023/04/19 09:03:24;;;;;;;4.63;0.80;;;13.20;78.20;;;;;;4992355;28;20037;-74
2023/04/19 09:05:50;;;;;;;0.98;0.68;;;13.30;76.90;;;;;;5019266;28;20048;-74
2023/04/19 09:08:26;;;;;;;1.08;0.60;;;13.10;76.80;;;;;;4989566;28;20033;-74
2023/04/19 09:11:00;;;;;;;1.73;0.40;;;13.10;76.20;;;;;;4980705;28;20159;-74
2023/04/19 09:13:28;;;;;;;1.60;0.52;;;13.00;77.70;;;;;;5002726;28;20052;-75
2023/04/19 09:15:56;;;;;;;2.35;0.60;;;13.20;78.20;;;;;;4990138;28;20030;-75
2023/04/19 09:18:25;;;;;;;2.10;0.55;;;13.30;79.20;;;;;;4997941;28;21126;-74
2023/04/19 09:20:59;;;;;;;4.85;0.70;;;13.50;78.30;;;;;;4987849;28;20037;-73
2023/04/19 09:23:30;;;;;;;1.90;0.80;;;13.60;77.40;;;;;;4988962;28;20035;-73
2023/04/19 09:26:00;;;;;;;1.80;0.60;;;13.50;77.70;;;;;;4989155;28;20444;-73
2023/04/19 09:28:27;;;;;;;1.80;0.60;;;13.50;78.60;;;;;;4987503;28;20099;-74
2023/04/19 09:30:54;;;;;;;5.65;0.88;;;13.60;79.00;;;;;;4978477;28;20036;-73
2023/04/19 09:33:35;;;;;;;2.30;0.50;;;13.80;78.40;;;;;;4987530;28;20045;-74
2023/04/19 09:36:02;;;;;;;2.08;0.75;;;13.80;77.40;;;;;;4994338;28;20036;-73
2023/04/19 09:38:28;;;;;;;2.58;0.70;;;13.70;75.90;;;;;;4995999;28;21016;-74
2023/04/19 09:41:07;;;;;;;3.55;0.70;;;13.70;75.50;;;;;;4982469;28;20048;-73
2023/04/19 09:43:34;;;;;;;2.72;0.70;;;13.70;75.30;;;;;;4984739;28;20516;-72
2023/04/19 09:46:00;;;;;;;1.50;0.50;;;13.70;74.10;;;;;;4971014;28;20037;-74
2023/04/19 09:48:26;;;;;;;0.82;0.43;;;13.70;74.80;;;;;;4973008;28;20037;-73
2023/04/19 09:50:55;;;;;;;1.52;0.50;;;13.70;75.00;;;;;;4981674;28;20068;-74
2023/04/19 09:53:23;;;;;;;3.08;0.77;;;13.80;74.70;;;;;;4989272;28;23044;-74
2023/04/19 09:55:50;;;;;;;2.33;0.50;;;13.90;73.80;;;;;;4995257;28;20421;-73
2023/04/19 09:58:18;;;;;;;0.88;0.50;;;14.00;74.90;;;;;;4995137;28;20033;-72
2023/04/19 10:00:46;;;;;;;1.95;0.60;;;14.10;74.20;;;;;;4968392;28;20489;-76
2023/04/19 10:03:17;;;;;;;3.00;0.70;;;14.30;73.90;;;;;;4954138;28;20037;-72
2023/04/19 10:05:44;;;;;;;1.85;0.60;;;14.40;69.80;;;;;;4988905;28;20041;-72
2023/04/19 10:08:11;;;;;;;4.10;0.90;;;14.30;70.40;;;;;;4988281;28;20045;-73
2023/04/19 10:10:45;;;;;;;2.03;0.50;;;14.20;69.40;;;;;;4980579;28;20029;-72
2023/04/19 10:13:16;;;;;;;3.80;0.68;;;14.10;69.70;;;;;;4981814;28;20037;-71
2023/04/19 10:15:43;;;;;;;2.25;0.60;;;14.20;70.30;;;;;;5008026;28;20044;-72
2023/04/19 10:18:10;;;;;;;2.05;0.63;;;14.20;71.30;;;;;;4996709;28;20050;-72
2023/04/19 10:20:48;;;;;;;2.13;0.65;;;14.50;70.10;;;;;;4988491;28;20076;-72
2023/04/19 10:23:15;;;;;;;6.03;0.90;;;14.50;70.50;;;;;;4988415;28;20372;-72
2023/04/19 10:25:46;;;;;;;1.77;0.60;;;14.70;70.40;;;;;;4991400;28;20033;-71
2023/04/19 10:28:14;;;;;;;4.18;0.80;;;14.80;70.00;;;;;;4993711;28;20441;-69
2023/04/19 10:30:59;;;;;;;4.25;0.70;;;15.00;70.50;;;;;;4983885;28;20022;-71
2023/04/19 10:33:33;;;;;;;2.10;0.60;;;15.10;68.70;;;;;;4993634;28;20615;-74
2023/04/19 10:36:00;;;;;;;1.85;0.60;;;15.30;68.80;;;;;;4999411;28;20736;-72
2023/04/19 10:38:38;;;;;;;1.60;0.70;;;15.40;68.00;;;;;;4999968;28;20048;-73
2023/04/19 10:41:10;;;;;;;3.53;0.77;;;15.80;67.90;;;;;;4986761;28;20100;-73
2023/04/19 10:43:38;;;;;;;1.90;0.73;;;16.10;67.90;;;;;;4965145;28;20050;-70
2023/04/19 10:46:13;;;;;;;1.40;0.60;;;16.30;65.50;;;;;;4972507;28;20041;-70
2023/04/19 10:48:52;;;;;;;2.85;0.77;;;16.40;65.40;;;;;;5007735;28;20128;-70
2023/04/19 10:51:42;;;;;;;2.60;0.70;;;16.60;65.70;;;;;;4983450;28;20040;-71
2023/04/19 10:54:27;;;;;;;1.63;0.80;;;16.90;63.70;;;;;;5011587;28;20045;-70
2023/04/19 10:57:03;;;;;;;2.10;0.80;;;17.10;63.10;;;;;;4999117;28;20032;-70
2023/04/19 10:59:41;;;;;;;2.75;0.60;;;17.20;63.30;;;;;;4993659;28;20366;-71
2023/04/19 11:02:26;;;;;;;1.45;0.68;;;17.60;63.90;;;;;;4990902;28;20033;-70
2023/04/19 11:04:53;;;;;;;1.50;0.80;;;17.90;62.80;;;;;;4992288;28;20054;-70
2023/04/19 11:07:22;;;;;;;2.80;1.00;;;18.20;62.70;;;;;;4990654;28;20042;-70
2023/04/19 11:09:49;;;;;;;1.88;0.70;;;18.60;61.00;;;;;;4987021;28;20029;-72
2023/04/19 11:12:18;;;;;;;3.35;1.10;;;18.80;59.10;;;;;;4970420;28;20042;-70
2023/04/19 11:14:45;;;;;;;2.60;1.00;;;19.20;57.60;;;;;;4994844;28;20392;-71
2023/04/19 11:17:16;;;;;;;1.70;0.70;;;19.40;54.20;;;;;;4999754;28;20060;-69
2023/04/19 11:19:58;;;;;;;2.92;0.85;;;19.60;54.00;;;;;;4992142;28;20045;-70
2023/04/19 11:22:28;;;;;;;1.50;0.90;;;20.00;52.70;;;;;;4990406;28;20044;-70
2023/04/19 11:24:54;;;;;;;4.07;0.90;;;20.30;52.80;;;;;;4970644;28;20256;-70
2023/04/19 11:27:21;;;;;;;3.08;0.75;;;20.60;49.30;;;;;;4990211;28;20385;-71
2023/04/19 11:29:47;;;;;;;2.75;1.02;;;20.70;45.80;;;;;;4982810;28;20406;-70
2023/04/19 11:32:13;;;;;;;3.65;0.80;;;20.40;46.00;;;;;;5003115;28;20048;-71
2023/04/19 11:34:40;;;;;;;10.07;1.40;;;20.30;47.00;;;;;;4993957;28;20536;-71
2023/04/19 11:37:07;;;;;;;2.78;0.80;;;20.60;48.40;;;;;;4982367;28;20030;-70
2023/04/19 11:39:43;;;;;;;1.83;1.00;;;21.00;47.70;;;;;;5027567;28;20037;-72
2023/04/19 11:42:17;;;;;;;3.53;1.00;;;21.20;47.40;;;;;;4984102;28;20041;-71
2023/04/19 11:44:50;;;;;;;4.50;1.08;;;21.60;47.50;;;;;;4990520;28;20044;-70
2023/04/19 11:47:19;;;;;;;2.90;1.30;;;21.90;46.80;;;;;;4988339;28;20417;-71
2023/04/19 11:50:41;;;;;;;3.47;1.00;;;22.20;46.60;;;;;;4982818;28;20061;-71
2023/04/19 11:53:21;;;;;;;3.95;1.00;;;22.60;45.30;;;;;;4988837;28;20136;-72
2023/04/19 11:55:53;;;;;;;4.80;1.48;;;22.70;43.40;;;;;;4998662;28;20025;-70
2023/04/19 11:58:22;;;;;;;3.20;0.95;;;22.60;42.20;;;;;;4998902;28;20351;-71
2023/04/19 12:00:49;;;;;;;1.50;0.88;;;22.60;43.40;;;;;;4986137;28;20296;-71
2023/04/19 12:03:19;;;;;;;2.78;1.00;;;22.80;42.90;;;;;;4987812;28;20044;-71
2023/04/19 12:05:56;;;;;;;6.32;1.13;;;23.10;42.00;;;;;;4988674;28;20038;-71
2023/04/19 12:08:33;;;;;;;2.70;0.90;;;23.10;41.10;;;;;;4991375;28;22548;-70
2023/04/19 12:11:01;;;;;;;5.53;0.90;;;23.00;41.60;;;;;;4982035;28;20484;-70
2023/04/19 12:13:28;;;;;;;1.92;0.70;;;23.20;40.60;;;;;;4979048;28;20048;-71
2023/04/19 12:15:54;;;;;;;2.58;1.00;;;23.10;40.20;;;;;;4998870;28;20463;-71
2023/04/19 12:18:20;;;;;;;9.65;1.00;;;23.00;39.90;;;;;;4999294;28;20409;-71
2023/04/19 12:20:48;;;;;;;2.33;1.10;;;23.10;40.00;;;;;;4998712;28;20041;-72
2023/04/19 12:23:15;;;;;;;8.02;1.20;;;23.20;39.70;;;;;;4990823;28;20044;-72
2023/04/19 12:25:47;;;;;;;10.63;1.50;;;23.20;40.00;;;;;;4987767;28;20044;-71
2023/04/19 12:28:15;;;;;;;3.33;1.40;;;23.50;40.40;;;;;;5002503;28;20392;-71
2023/04/19 12:30:42;;;;;;;7.45;1.23;;;23.80;39.30;;;;;;4981535;28;20436;-71
2023/04/19 12:33:08;;;;;;;3.65;1.33;;;23.70;39.60;;;;;;4994437;28;20037;-71
2023/04/19 12:35:36;;;;;;;6.18;1.67;;;23.90;40.30;;;;;;4996001;28;20033;-72
2023/04/19 12:38:02;;;;;;;3.05;1.30;;;24.10;40.30;;;;;;4996697;28;20052;-71
2023/04/19 12:40:29;;;;;;;9.43;1.67;;;24.20;39.30;;;;;;4984025;28;20052;-70
2023/04/19 12:42:56;;;;;;;4.65;1.35;;;24.40;39.00;;;;;;4986308;28;20041;-72
2023/04/19 12:45:22;;;;;;;4.88;1.63;;;24.20;38.70;;;;;;4989857;28;20443;-70
2023/04/19 12:47:48;;;;;;;3.33;1.25;;;24.00;39.10;;;;;;4969257;28;20800;-71
2023/04/19 12:50:15;;;;;;;2.92;1.55;;;24.00;39.70;;;;;;4978456;28;20052;-71
2023/04/19 12:52:42;;;;;;;4.90;1.58;;;24.20;38.10;;;;;;4989562;28;20033;-71
2023/04/19 12:55:08;;;;;;;2.75;1.10;;;24.20;38.70;;;;;;4995914;28;20044;-72